sensor_id;sensor_type;location;lat;lon;timestamp;pressure;altitude;pressure_sealevel;temperature;humidity
68141;BME280;54941;52.220;104.306;2023-12-04T00:00:00;94217.44;;;-5.21;84.45
68141;BME280;54941;52.220;104.306;2023-12-04T00:02:29;94217.44;;;-5.16;83.69
68141;BME280;54941;52.220;104.306;2023-12-04T00:04:56;94209.72;;;-5.13;83.17
68141;BME280;54941;52.220;104.306;2023-12-04T00:07:22;94206.34;;;-5.08;82.75
68141;BME280;54941;52.220;104.306;2023-12-04T00:09:48;94202.03;;;-5.01;82.49
68141;BME280;54941;52.220;104.306;2023-12-04T00:12:15;94202.94;;;-4.97;82.05
68141;BME280;54941;52.220;104.306;2023-12-04T00:14:41;94199.50;;;-4.95;81.62
68141;BME280;54941;52.220;104.306;2023-12-04T00:17:09;94202.94;;;-4.94;81.30
68141;BME280;54941;52.220;104.306;2023-12-04T00:19:35;94200.34;;;-4.94;81.17
68141;BME280;54941;52.220;104.306;2023-12-04T00:22:02;94203.75;;;-5.05;81.80
68141;BME280;54941;52.220;104.306;2023-12-04T00:24:28;94200.34;;;-4.93;80.79
68141;BME280;54941;52.220;104.306;2023-12-04T00:26:55;94205.50;;;-4.91;80.60
68141;BME280;54941;52.220;104.306;2023-12-04T00:29:21;94199.53;;;-4.86;80.11
68141;BME280;54941;52.220;104.306;2023-12-04T00:31:47;94181.50;;;-4.86;79.61
68141;BME280;54941;52.220;104.306;2023-12-04T00:34:15;94192.63;;;-4.90;79.99
68141;BME280;54941;52.220;104.306;2023-12-04T00:36:41;94179.75;;;-4.90;79.82
68141;BME280;54941;52.220;104.306;2023-12-04T00:39:08;94177.19;;;-4.87;79.04
68141;BME280;54941;52.220;104.306;2023-12-04T00:41:34;94184.91;;;-4.87;79.04
68141;BME280;54941;52.220;104.306;2023-12-04T00:44:01;94159.19;;;-4.82;78.76
68141;BME280;54941;52.220;104.306;2023-12-04T00:46:27;94159.19;;;-4.82;79.08
68141;BME280;54941;52.220;104.306;2023-12-04T00:48:53;94148.00;;;-4.83;79.28
68141;BME280;54941;52.220;104.306;2023-12-04T00:51:21;94141.16;;;-4.81;79.50
68141;BME280;54941;52.220;104.306;2023-12-04T00:53:47;94144.59;;;-4.82;79.73
68141;BME280;54941;52.220;104.306;2023-12-04T00:56:14;94134.28;;;-4.79;79.78
68141;BME280;54941;52.220;104.306;2023-12-04T00:58:40;94126.53;;;-4.76;79.78
68141;BME280;54941;52.220;104.306;2023-12-04T01:01:07;94123.09;;;-4.75;79.75
68141;BME280;54941;52.220;104.306;2023-12-04T01:03:33;94122.25;;;-4.67;79.77
68141;BME280;54941;52.220;104.306;2023-12-04T01:06:00;94110.25;;;-4.62;79.93
68141;BME280;54941;52.220;104.306;2023-12-04T01:08:28;94115.38;;;-4.53;79.66
68141;BME280;54941;52.220;104.306;2023-12-04T01:10:54;94123.97;;;-4.47;79.57
68141;BME280;54941;52.220;104.306;2023-12-04T01:13:20;94112.81;;;-4.49;80.11
68141;BME280;54941;52.220;104.306;2023-12-04T01:15:47;94102.50;;;-4.44;79.86
68141;BME280;54941;52.220;104.306;2023-12-04T01:18:13;94121.38;;;-4.41;79.53
68141;BME280;54941;52.220;104.306;2023-12-04T01:20:39;94103.34;;;-4.33;79.08
68141;BME280;54941;52.220;104.306;2023-12-04T01:23:06;94103.34;;;-4.33;78.97
68141;BME280;54941;52.220;104.306;2023-12-04T01:25:34;94105.91;;;-4.25;78.58
68141;BME280;54941;52.220;104.306;2023-12-04T01:28:00;94094.72;;;-4.20;78.29
68141;BME280;54941;52.220;104.306;2023-12-04T01:30:26;94095.59;;;-4.16;78.15
68141;BME280;54941;52.220;104.306;2023-12-04T01:32:53;94092.16;;;-4.14;78.15
68141;BME280;54941;52.220;104.306;2023-12-04T01:35:19;94092.09;;;-4.01;77.45
68141;BME280;54941;52.220;104.306;2023-12-04T01:37:45;94077.47;;;-3.99;77.21
68141;BME280;54941;52.220;104.306;2023-12-04T01:40:12;94071.44;;;-3.95;77.34
68141;BME280;54941;52.220;104.306;2023-12-04T01:42:40;94070.63;;;-4.00;77.50
68141;BME280;54941;52.220;104.306;2023-12-04T01:45:09;94056.81;;;-3.90;77.12
68141;BME280;54941;52.220;104.306;2023-12-04T01:47:35;94046.47;;;-3.81;76.73
68141;BME280;54941;52.220;104.306;2023-12-04T01:50:02;94042.19;;;-3.85;76.94
68141;BME280;54941;52.220;104.306;2023-12-04T01:52:30;94044.75;;;-3.79;76.64
68141;BME280;54941;52.220;104.306;2023-12-04T01:54:56;94052.44;;;-3.74;75.99
68141;BME280;54941;52.220;104.306;2023-12-04T01:57:23;94042.97;;;-3.69;76.06
68141;BME280;54941;52.220;104.306;2023-12-04T01:59:51;94046.41;;;-3.66;75.71
68141;BME280;54941;52.220;104.306;2023-12-04T02:02:18;94034.31;;;-3.61;75.40
68141;BME280;54941;52.220;104.306;2023-12-04T02:04:45;94033.47;;;-3.63;75.63
68141;BME280;54941;52.220;104.306;2023-12-04T02:07:12;94027.44;;;-3.63;75.20
68141;BME280;54941;52.220;104.306;2023-12-04T02:09:38;94033.47;;;-3.58;76.20
68141;BME280;54941;52.220;104.306;2023-12-04T02:12:05;94029.09;;;-3.50;75.93
68141;BME280;54941;52.220;104.306;2023-12-04T02:14:32;94023.94;;;-3.52;75.84
68141;BME280;54941;52.220;104.306;2023-12-04T02:17:01;94014.53;;;-3.56;76.15
68141;BME280;54941;52.220;104.306;2023-12-04T02:19:29;94012.81;;;-3.57;76.35
68141;BME280;54941;52.220;104.306;2023-12-04T02:21:56;94007.59;;;-3.49;76.62
68141;BME280;54941;52.220;104.306;2023-12-04T02:24:24;94004.13;;;-3.45;76.50
68141;BME280;54941;52.220;104.306;2023-12-04T02:26:53;94006.72;;;-3.46;76.41
68141;BME280;54941;52.220;104.306;2023-12-04T02:29:24;94001.53;;;-3.43;77.12
68141;BME280;54941;52.220;104.306;2023-12-04T02:31:54;93998.88;;;-3.30;76.74
68141;BME280;54941;52.220;104.306;2023-12-04T02:34:21;93998.03;;;-3.33;76.98
68141;BME280;54941;52.220;104.306;2023-12-04T02:36:50;93998.88;;;-3.31;77.33
68141;BME280;54941;52.220;104.306;2023-12-04T02:39:18;93999.72;;;-3.29;77.56
68141;BME280;54941;52.220;104.306;2023-12-04T02:41:46;93989.38;;;-3.29;77.20
68141;BME280;54941;52.220;104.306;2023-12-04T02:44:13;93997.09;;;-3.21;77.30
68141;BME280;54941;52.220;104.306;2023-12-04T02:46:39;93987.66;;;-3.24;77.55
68141;BME280;54941;52.220;104.306;2023-12-04T02:49:05;93978.94;;;-3.15;77.38
68141;BME280;54941;52.220;104.306;2023-12-04T02:51:32;93973.78;;;-3.11;77.84
68141;BME280;54941;52.220;104.306;2023-12-04T02:53:58;93966.03;;;-3.11;78.02
68141;BME280;54941;52.220;104.306;2023-12-04T02:56:24;93955.69;;;-3.09;78.60
68141;BME280;54941;52.220;104.306;2023-12-04T02:58:52;93964.28;;;-3.09;79.08
68141;BME280;54941;52.220;104.306;2023-12-04T03:01:19;93961.63;;;-3.00;78.89
68141;BME280;54941;52.220;104.306;2023-12-04T03:03:45;93959.03;;;-3.01;78.97
68141;BME280;54941;52.220;104.306;2023-12-04T03:06:11;93961.56;;;-2.94;78.96
68141;BME280;54941;52.220;104.306;2023-12-04T03:08:38;93959.81;;;-2.91;79.34
68141;BME280;54941;52.220;104.306;2023-12-04T03:11:04;93943.44;;;-2.89;79.35
68141;BME280;54941;52.220;104.306;2023-12-04T03:13:32;93921.88;;;-2.85;79.25
68141;BME280;54941;52.220;104.306;2023-12-04T03:16:00;93926.97;;;-2.80;79.38
68141;BME280;54941;52.220;104.306;2023-12-04T03:18:26;93930.38;;;-2.75;79.13
68141;BME280;54941;52.220;104.306;2023-12-04T03:20:52;93922.53;;;-2.65;78.42
68141;BME280;54941;52.220;104.306;2023-12-04T03:23:19;93916.50;;;-2.68;78.70
68141;BME280;54941;52.220;104.306;2023-12-04T03:25:45;93916.47;;;-2.63;78.65
68141;BME280;54941;52.220;104.306;2023-12-04T03:28:11;93916.50;;;-2.65;78.63
68141;BME280;54941;52.220;104.306;2023-12-04T03:30:38;93913.00;;;-2.61;78.17
68141;BME280;54941;52.220;104.306;2023-12-04T03:33:06;93909.53;;;-2.58;77.53
68141;BME280;54941;52.220;104.306;2023-12-04T03:35:32;93912.84;;;-2.47;76.77
68141;BME280;54941;52.220;104.306;2023-12-04T03:37:58;93907.59;;;-2.40;76.90
68141;BME280;54941;52.220;104.306;2023-12-04T03:40:25;93906.84;;;-2.49;76.35
68141;BME280;54941;52.220;104.306;2023-12-04T03:42:51;93887.88;;;-2.48;76.06
68141;BME280;54941;52.220;104.306;2023-12-04T03:45:17;93885.25;;;-2.45;75.79
68141;BME280;54941;52.220;104.306;2023-12-04T03:47:44;93893.84;;;-2.42;75.27
68141;BME280;54941;52.220;104.306;2023-12-04T03:50:12;93892.88;;;-2.36;74.71
68141;BME280;54941;52.220;104.306;2023-12-04T03:52:38;93891.09;;;-2.29;74.34
68141;BME280;54941;52.220;104.306;2023-12-04T03:55:05;93875.50;;;-2.23;74.03
68141;BME280;54941;52.220;104.306;2023-12-04T03:57:32;93871.25;;;-2.27;73.52
68141;BME280;54941;52.220;104.306;2023-12-04T03:59:58;93861.72;;;-2.25;73.67
68141;BME280;54941;52.220;104.306;2023-12-04T04:02:25;93858.19;;;-2.18;73.78
68141;BME280;54941;52.220;104.306;2023-12-04T04:04:51;93862.50;;;-2.20;73.77
68141;BME280;54941;52.220;104.306;2023-12-04T04:07:20;93854.75;;;-2.19;74.18
68141;BME280;54941;52.220;104.306;2023-12-04T04:09:46;93838.34;;;-2.16;74.07
68141;BME280;54941;52.220;104.306;2023-12-04T04:12:12;93827.13;;;-2.17;74.23
68141;BME280;54941;52.220;104.306;2023-12-04T04:14:39;93824.47;;;-2.12;74.71
68141;BME280;54941;52.220;104.306;2023-12-04T04:17:05;93812.34;;;-2.07;74.58
68141;BME280;54941;52.220;104.306;2023-12-04T04:19:31;93804.59;;;-2.09;74.72
68141;BME280;54941;52.220;104.306;2023-12-04T04:21:58;93796.66;;;-1.96;74.13
68141;BME280;54941;52.220;104.306;2023-12-04T04:24:26;93770.78;;;-1.98;74.53
68141;BME280;54941;52.220;104.306;2023-12-04T04:26:52;93765.63;;;-1.98;74.66
68141;BME280;54941;52.220;104.306;2023-12-04T04:29:18;93765.47;;;-1.89;74.59
68141;BME280;54941;52.220;104.306;2023-12-04T04:31:45;93767.19;;;-1.88;74.79
68141;BME280;54941;52.220;104.306;2023-12-04T04:34:11;93760.22;;;-1.83;74.25
68141;BME280;54941;52.220;104.306;2023-12-04T04:36:37;93752.44;;;-1.81;73.74
68141;BME280;54941;52.220;104.306;2023-12-04T04:39:04;93736.75;;;-1.72;73.68
68141;BME280;54941;52.220;104.306;2023-12-04T04:41:32;93754.81;;;-1.69;73.94
68141;BME280;54941;52.220;104.306;2023-12-04T04:43:58;93756.56;;;-1.69;73.87
68141;BME280;54941;52.220;104.306;2023-12-04T04:46:24;93734.84;;;-1.62;73.42
68141;BME280;54941;52.220;104.306;2023-12-04T04:48:51;93730.38;;;-1.54;73.21
68141;BME280;54941;52.220;104.306;2023-12-04T04:51:17;93730.44;;;-1.57;72.57
68141;BME280;54941;52.220;104.306;2023-12-04T04:53:44;93714.88;;;-1.56;72.40
68141;BME280;54941;52.220;104.306;2023-12-04T04:56:10;93741.44;;;-1.44;72.34
68141;BME280;54941;52.220;104.306;2023-12-04T04:58:38;93738.66;;;-1.34;72.06
68141;BME280;54941;52.220;104.306;2023-12-04T05:01:05;93735.09;;;-1.27;71.80
68141;BME280;54941;52.220;104.306;2023-12-04T05:03:31;93740.19;;;-1.24;72.02
68141;BME280;54941;52.220;104.306;2023-12-04T05:05:57;93715.13;;;-1.22;72.29
68141;BME280;54941;52.220;104.306;2023-12-04T05:08:24;93712.41;;;-1.17;72.54
68141;BME280;54941;52.220;104.306;2023-12-04T05:10:50;93706.28;;;-1.11;72.93
68141;BME280;54941;52.220;104.306;2023-12-04T05:13:16;93693.41;;;-1.14;73.44
68141;BME280;54941;52.220;104.306;2023-12-04T05:15:44;93682.81;;;-1.05;73.38
68141;BME280;54941;52.220;104.306;2023-12-04T05:18:11;93657.69;;;-1.00;73.41
68141;BME280;54941;52.220;104.306;2023-12-04T05:20:37;93674.19;;;-1.06;73.51
68141;BME280;54941;52.220;104.306;2023-12-04T05:23:03;93669.69;;;-0.96;73.83
68141;BME280;54941;52.220;104.306;2023-12-04T05:25:30;93670.50;;;-0.94;73.63
68141;BME280;54941;52.220;104.306;2023-12-04T05:27:56;93665.94;;;-0.83;73.43
68141;BME280;54941;52.220;104.306;2023-12-04T05:30:22;93675.66;;;-0.91;73.44
68141;BME280;54941;52.220;104.306;2023-12-04T05:32:50;93664.19;;;-0.81;73.39
68141;BME280;54941;52.220;104.306;2023-12-04T05:35:17;93651.47;;;-0.92;73.78
68141;BME280;54941;52.220;104.306;2023-12-04T05:37:43;93660.03;;;-0.88;73.20
68141;BME280;54941;52.220;104.306;2023-12-04T05:40:10;93659.03;;;-0.82;72.54
68141;BME280;54941;52.220;104.306;2023-12-04T05:42:36;93651.00;;;-0.72;72.16
68141;BME280;54941;52.220;104.306;2023-12-04T05:45:03;93652.00;;;-0.77;72.58
68141;BME280;54941;52.220;104.306;2023-12-04T05:47:31;93631.94;;;-0.68;72.19
68141;BME280;54941;52.220;104.306;2023-12-04T05:49:59;93648.59;;;-0.79;72.13
68141;BME280;54941;52.220;104.306;2023-12-04T05:52:26;93638.00;;;-0.69;72.08
68141;BME280;54941;52.220;104.306;2023-12-04T05:54:52;93641.44;;;-0.68;71.80
68141;BME280;54941;52.220;104.306;2023-12-04T05:57:18;93644.69;;;-0.60;72.10
68141;BME280;54941;52.220;104.306;2023-12-04T05:59:45;93637.84;;;-0.63;72.15
68141;BME280;54941;52.220;104.306;2023-12-04T06:02:11;93625.50;;;-0.51;70.66
68141;BME280;54941;52.220;104.306;2023-12-04T06:04:38;93628.13;;;-0.53;70.78
68141;BME280;54941;52.220;104.306;2023-12-04T06:07:05;93621.06;;;-0.46;70.67
68141;BME280;54941;52.220;104.306;2023-12-04T06:09:32;93617.59;;;-0.47;71.21
68141;BME280;54941;52.220;104.306;2023-12-04T06:11:58;93618.38;;;-0.43;71.37
68141;BME280;54941;52.220;104.306;2023-12-04T06:14:24;93613.13;;;-0.40;71.67
68141;BME280;54941;52.220;104.306;2023-12-04T06:16:51;93609.09;;;-0.52;71.49
68141;BME280;54941;52.220;104.306;2023-12-04T06:19:17;93612.81;;;-0.28;71.25
68141;BME280;54941;52.220;104.306;2023-12-04T06:21:44;93602.41;;;-0.26;71.20
68141;BME280;54941;52.220;104.306;2023-12-04T06:24:12;93600.78;;;-0.31;71.19
68141;BME280;54941;52.220;104.306;2023-12-04T06:26:41;93598.38;;;-0.38;71.64
68141;BME280;54941;52.220;104.306;2023-12-04T06:29:08;93594.41;;;-0.17;70.65
68141;BME280;54941;52.220;104.306;2023-12-04T06:31:35;93597.09;;;-0.20;70.91
68141;BME280;54941;52.220;104.306;2023-12-04T06:34:02;93593.00;;;-0.31;71.47
68141;BME280;54941;52.220;104.306;2023-12-04T06:36:30;93606.09;;;-0.37;71.17
68141;BME280;54941;52.220;104.306;2023-12-04T06:38:59;93601.72;;;-0.33;70.36
68141;BME280;54941;52.220;104.306;2023-12-04T06:41:29;93600.84;;;-0.32;70.66
68141;BME280;54941;52.220;104.306;2023-12-04T06:43:55;93602.56;;;-0.33;70.73
68141;BME280;54941;52.220;104.306;2023-12-04T06:46:24;93588.88;;;-0.39;70.56
68141;BME280;54941;52.220;104.306;2023-12-04T06:48:54;93594.03;;;-0.38;70.45
68141;BME280;54941;52.220;104.306;2023-12-04T06:51:23;93605.94;;;-0.29;70.48
68141;BME280;54941;52.220;104.306;2023-12-04T06:53:49;93588.41;;;-0.19;70.35
68141;BME280;54941;52.220;104.306;2023-12-04T06:56:16;93595.94;;;-0.44;70.67
68141;BME280;54941;52.220;104.306;2023-12-04T06:58:44;93590.66;;;-0.41;70.90
68141;BME280;54941;52.220;104.306;2023-12-04T07:01:10;93606.28;;;-0.43;71.10
68141;BME280;54941;52.220;104.306;2023-12-04T07:03:36;93607.13;;;-0.42;71.20
68141;BME280;54941;52.220;104.306;2023-12-04T07:06:03;93619.88;;;-0.33;70.71
68141;BME280;54941;52.220;104.306;2023-12-04T07:08:31;93627.41;;;-0.22;70.67
68141;BME280;54941;52.220;104.306;2023-12-04T07:10:58;93633.91;;;-0.42;71.16
68141;BME280;54941;52.220;104.306;2023-12-04T07:13:24;93632.91;;;-0.36;70.94
68141;BME280;54941;52.220;104.306;2023-12-04T07:15:52;93623.63;;;-0.45;71.48
68141;BME280;54941;52.220;104.306;2023-12-04T07:18:18;93624.94;;;-0.28;70.79
68141;BME280;54941;52.220;104.306;2023-12-04T07:20:45;93635.47;;;-0.35;71.21
68141;BME280;54941;52.220;104.306;2023-12-04T07:23:11;93626.13;;;-0.42;71.54
68141;BME280;54941;52.220;104.306;2023-12-04T07:25:37;93625.28;;;-0.42;71.77
68141;BME280;54941;52.220;104.306;2023-12-04T07:28:04;93623.66;;;-0.46;72.47
68141;BME280;54941;52.220;104.306;2023-12-04T07:30:30;93633.94;;;-0.43;71.94
68141;BME280;54941;52.220;104.306;2023-12-04T07:32:58;93641.91;;;-0.51;72.61
68141;BME280;54941;52.220;104.306;2023-12-04T07:37:51;93647.66;;;-0.38;71.72
68141;BME280;54941;52.220;104.306;2023-12-04T07:40:17;93658.53;;;-0.24;71.33
68141;BME280;54941;52.220;104.306;2023-12-04T07:42:44;93667.47;;;-0.34;71.89
68141;BME280;54941;52.220;104.306;2023-12-04T07:45:11;93652.72;;;-0.32;71.62
68141;BME280;54941;52.220;104.306;2023-12-04T07:47:37;93659.03;;;-0.44;72.47
68141;BME280;54941;52.220;104.306;2023-12-04T07:50:06;93675.09;;;-0.28;72.26
68141;BME280;54941;52.220;104.306;2023-12-04T07:52:32;93670.75;;;-0.27;72.07
68141;BME280;54941;52.220;104.306;2023-12-04T07:54:59;93682.06;;;-0.30;72.79
68141;BME280;54941;52.220;104.306;2023-12-04T07:57:25;93692.25;;;-0.22;71.70
68141;BME280;54941;52.220;104.306;2023-12-04T07:59:52;93711.34;;;0.11;70.72
68141;BME280;54941;52.220;104.306;2023-12-04T08:02:18;93720.19;;;-0.34;71.84
68141;BME280;54941;52.220;104.306;2023-12-04T08:04:45;93735.19;;;-0.48;72.38
68141;BME280;54941;52.220;104.306;2023-12-04T08:07:13;93733.91;;;-0.69;73.46
68141;BME280;54941;52.220;104.306;2023-12-04T08:09:39;93739.88;;;-0.65;73.66
68141;BME280;54941;52.220;104.306;2023-12-04T08:12:06;93749.59;;;-0.75;73.99
68141;BME280;54941;52.220;104.306;2023-12-04T08:14:32;93769.41;;;-0.72;74.28
68141;BME280;54941;52.220;104.306;2023-12-04T08:16:59;93786.88;;;-0.82;74.59
68141;BME280;54941;52.220;104.306;2023-12-04T08:19:25;93792.53;;;-0.62;74.32
68141;BME280;54941;52.220;104.306;2023-12-04T08:21:52;93810.38;;;-0.46;73.19
68141;BME280;54941;52.220;104.306;2023-12-04T08:24:19;93820.91;;;-0.54;72.89
68141;BME280;54941;52.220;104.306;2023-12-04T08:26:46;93826.28;;;-0.65;73.52
68141;BME280;54941;52.220;104.306;2023-12-04T08:29:12;93829.81;;;-0.67;73.41
68141;BME280;54941;52.220;104.306;2023-12-04T08:31:39;93823.38;;;-0.49;73.18
68141;BME280;54941;52.220;104.306;2023-12-04T08:34:05;93830.50;;;-0.59;73.10
68141;BME280;54941;52.220;104.306;2023-12-04T08:36:31;93843.56;;;-0.64;73.10
68141;BME280;54941;52.220;104.306;2023-12-04T08:38:58;93853.44;;;-0.84;73.60
68141;BME280;54941;52.220;104.306;2023-12-04T08:41:26;93854.94;;;-1.19;72.39
68141;BME280;54941;52.220;104.306;2023-12-04T08:43:52;93860.78;;;-1.58;71.05
68141;BME280;54941;52.220;104.306;2023-12-04T08:46:18;93877.50;;;-1.81;72.50
68141;BME280;54941;52.220;104.306;2023-12-04T08:48:45;93889.50;;;-1.77;72.15
68141;BME280;54941;52.220;104.306;2023-12-04T08:51:15;93893.97;;;-1.85;72.15
68141;BME280;54941;52.220;104.306;2023-12-04T08:53:42;93896.78;;;-2.03;72.43
68141;BME280;54941;52.220;104.306;2023-12-04T08:56:09;93898.69;;;-2.17;73.51
68141;BME280;54941;52.220;104.306;2023-12-04T08:58:37;93905.59;;;-2.16;74.21
68141;BME280;54941;52.220;104.306;2023-12-04T09:01:04;93919.38;;;-2.17;73.83
68141;BME280;54941;52.220;104.306;2023-12-04T09:03:30;93926.28;;;-2.16;74.04
68141;BME280;54941;52.220;104.306;2023-12-04T09:05:57;93930.50;;;-2.11;74.13
68141;BME280;54941;52.220;104.306;2023-12-04T09:08:23;93935.75;;;-2.15;74.03
68141;BME280;54941;52.220;104.306;2023-12-04T09:10:50;93940.97;;;-2.20;73.86
68141;BME280;54941;52.220;104.306;2023-12-04T09:13:16;93943.53;;;-2.18;74.15
68141;BME280;54941;52.220;104.306;2023-12-04T09:15:44;93954.06;;;-2.35;75.04
68141;BME280;54941;52.220;104.306;2023-12-04T09:18:11;93927.31;;;-2.32;74.88
68141;BME280;54941;52.220;104.306;2023-12-04T09:20:37;93930.66;;;-2.24;73.98
68141;BME280;54941;52.220;104.306;2023-12-04T09:23:03;93972.19;;;-2.37;74.82
68141;BME280;54941;52.220;104.306;2023-12-04T09:25:30;93984.16;;;-2.26;74.26
68141;BME280;54941;52.220;104.306;2023-12-04T09:27:56;93999.56;;;-2.20;73.60
68141;BME280;54941;52.220;104.306;2023-12-04T09:30:22;94005.63;;;-2.18;73.29
68141;BME280;54941;52.220;104.306;2023-12-04T09:32:50;93996.28;;;-2.31;73.51
68141;BME280;54941;52.220;104.306;2023-12-04T09:35:17;94005.78;;;-2.35;73.53
68141;BME280;54941;52.220;104.306;2023-12-04T09:37:43;94020.25;;;-2.17;72.97
68141;BME280;54941;52.220;104.306;2023-12-04T09:40:10;94001.44;;;-2.33;73.40
68141;BME280;54941;52.220;104.306;2023-12-04T09:42:36;94017.81;;;-2.32;73.84
68141;BME280;54941;52.220;104.306;2023-12-04T09:45:05;94035.22;;;-2.50;73.40
68141;BME280;54941;52.220;104.306;2023-12-04T09:47:33;94032.56;;;-2.41;73.14
68141;BME280;54941;52.220;104.306;2023-12-04T09:50:01;94013.72;;;-2.55;74.25
68141;BME280;54941;52.220;104.306;2023-12-04T09:52:28;94015.44;;;-2.52;73.59
68141;BME280;54941;52.220;104.306;2023-12-04T09:54:55;94016.38;;;-2.61;73.38
68141;BME280;54941;52.220;104.306;2023-12-04T09:57:23;94025.91;;;-2.66;73.93
68141;BME280;54941;52.220;104.306;2023-12-04T09:59:50;94012.31;;;-2.91;74.40
68141;BME280;54941;52.220;104.306;2023-12-04T10:02:17;93998.50;;;-2.84;74.59
68141;BME280;54941;52.220;104.306;2023-12-04T10:04:44;94011.31;;;-2.73;74.42
68141;BME280;54941;52.220;104.306;2023-12-04T10:07:13;94039.81;;;-2.82;74.59
68141;BME280;54941;52.220;104.306;2023-12-04T10:09:39;94061.50;;;-3.03;74.76
68141;BME280;54941;52.220;104.306;2023-12-04T10:12:06;94068.31;;;-2.93;74.36
68141;BME280;54941;52.220;104.306;2023-12-04T10:14:33;94057.84;;;-2.73;74.10
68141;BME280;54941;52.220;104.306;2023-12-04T10:16:59;94057.88;;;-2.76;74.06
68141;BME280;54941;52.220;104.306;2023-12-04T10:19:27;94029.56;;;-2.88;74.11
68141;BME280;54941;52.220;104.306;2023-12-04T10:21:55;94015.84;;;-2.98;73.88
68141;BME280;54941;52.220;104.306;2023-12-04T10:24:30;94045.22;;;-3.13;73.73
68141;BME280;54941;52.220;104.306;2023-12-04T10:26:57;94076.00;;;-2.82;73.41
68141;BME280;54941;52.220;104.306;2023-12-04T10:29:26;94075.38;;;-3.18;73.92
68141;BME280;54941;52.220;104.306;2023-12-04T10:31:53;94061.69;;;-3.32;74.21
68141;BME280;54941;52.220;104.306;2023-12-04T10:34:19;94082.38;;;-3.35;74.71
68141;BME280;54941;52.220;104.306;2023-12-04T10:36:46;94086.69;;;-3.39;74.99
68141;BME280;54941;52.220;104.306;2023-12-04T10:39:12;94095.22;;;-3.21;73.94
68141;BME280;54941;52.220;104.306;2023-12-04T10:41:40;94094.41;;;-3.33;73.72
68141;BME280;54941;52.220;104.306;2023-12-04T10:44:07;94097.69;;;-3.08;72.74
68141;BME280;54941;52.220;104.306;2023-12-04T10:46:36;94095.22;;;-3.26;73.24
68141;BME280;54941;52.220;104.306;2023-12-04T10:49:04;94102.09;;;-3.25;73.41
68141;BME280;54941;52.220;104.306;2023-12-04T10:51:30;94103.72;;;-3.07;72.18
68141;BME280;54941;52.220;104.306;2023-12-04T10:53:56;94128.84;;;-3.35;73.47
68141;BME280;54941;52.220;104.306;2023-12-04T10:56:27;94117.63;;;-3.33;73.73
68141;BME280;54941;52.220;104.306;2023-12-04T10:58:58;94115.06;;;-3.33;73.56
68141;BME280;54941;52.220;104.306;2023-12-04T11:01:25;94123.69;;;-3.40;74.19
68141;BME280;54941;52.220;104.306;2023-12-04T11:03:53;94127.03;;;-3.19;73.95
68141;BME280;54941;52.220;104.306;2023-12-04T11:06:21;94127.94;;;-3.28;73.81
68141;BME280;54941;52.220;104.306;2023-12-04T11:08:50;94122.72;;;-3.19;73.45
68141;BME280;54941;52.220;104.306;2023-12-04T11:11:25;94140.75;;;-3.14;73.75
68141;BME280;54941;52.220;104.306;2023-12-04T11:13:54;94152.81;;;-3.15;73.41
68141;BME280;54941;52.220;104.306;2023-12-04T11:16:28;94157.13;;;-3.09;73.95
68141;BME280;54941;52.220;104.306;2023-12-04T11:19:00;94160.56;;;-3.10;73.62
68141;BME280;54941;52.220;104.306;2023-12-04T11:21:27;94157.78;;;-2.75;72.36
68141;BME280;54941;52.220;104.306;2023-12-04T11:23:55;94162.22;;;-2.97;73.13
68141;BME280;54941;52.220;104.306;2023-12-04T11:26:22;94167.44;;;-3.11;73.63
68141;BME280;54941;52.220;104.306;2023-12-04T11:28:49;94170.78;;;-2.94;73.62
68141;BME280;54941;52.220;104.306;2023-12-04T11:31:16;94149.19;;;-2.80;72.62
68141;BME280;54941;52.220;104.306;2023-12-04T11:33:44;94164.72;;;-2.86;72.10
68141;BME280;54941;52.220;104.306;2023-12-04T11:36:12;94170.69;;;-2.74;72.58
68141;BME280;54941;52.220;104.306;2023-12-04T11:38:43;94187.25;;;-3.13;73.38
68141;BME280;54941;52.220;104.306;2023-12-04T11:41:17;94195.84;;;-3.14;73.53
68141;BME280;54941;52.220;104.306;2023-12-04T11:43:45;94200.91;;;-2.89;73.30
68141;BME280;54941;52.220;104.306;2023-12-04T11:46:12;94207.88;;;-3.04;73.81
68141;BME280;54941;52.220;104.306;2023-12-04T11:48:39;94210.50;;;-3.17;74.30
68141;BME280;54941;52.220;104.306;2023-12-04T11:51:08;94236.38;;;-3.22;74.41
68141;BME280;54941;52.220;104.306;2023-12-04T11:53:37;94310.28;;;-2.92;73.20
68141;BME280;54941;52.220;104.306;2023-12-04T11:56:08;94343.88;;;-3.03;74.05
68141;BME280;54941;52.220;104.306;2023-12-04T11:58:42;94366.25;;;-2.94;75.58
68141;BME280;54941;52.220;104.306;2023-12-04T12:01:08;94359.38;;;-2.97;77.42
68141;BME280;54941;52.220;104.306;2023-12-04T12:03:35;94377.50;;;-3.07;79.46
68141;BME280;54941;52.220;104.306;2023-12-04T12:06:01;94385.28;;;-3.45;82.34
68141;BME280;54941;52.220;104.306;2023-12-04T12:08:30;94375.81;;;-3.45;83.44
68141;BME280;54941;52.220;104.306;2023-12-04T12:10:57;94380.97;;;-3.49;84.12
68141;BME280;54941;52.220;104.306;2023-12-04T12:13:24;94386.97;;;-3.63;85.69
68141;BME280;54941;52.220;104.306;2023-12-04T12:15:51;94388.69;;;-3.62;86.23
68141;BME280;54941;52.220;104.306;2023-12-04T12:18:18;94382.69;;;-3.58;86.17
68141;BME280;54941;52.220;104.306;2023-12-04T12:20:44;94405.06;;;-3.66;86.38
68141;BME280;54941;52.220;104.306;2023-12-04T12:23:11;94418.81;;;-3.62;86.65
68141;BME280;54941;52.220;104.306;2023-12-04T12:25:39;94423.97;;;-3.79;86.88
68141;BME280;54941;52.220;104.306;2023-12-04T12:28:07;94421.38;;;-3.62;86.70
68141;BME280;54941;52.220;104.306;2023-12-04T12:30:33;94452.34;;;-3.62;86.12
68141;BME280;54941;52.220;104.306;2023-12-04T12:33:00;94454.09;;;-3.57;86.34
68141;BME280;54941;52.220;104.306;2023-12-04T12:35:26;94467.00;;;-3.55;85.78
68141;BME280;54941;52.220;104.306;2023-12-04T12:37:52;94476.47;;;-3.53;85.50
68141;BME280;54941;52.220;104.306;2023-12-04T12:40:20;94495.38;;;-3.47;86.00